sensor_id;sensor_type;location;lat;lon;timestamp;P1;durP1;ratioP1;P2;durP2;ratioP2
11447;SDS011;43755;49.736;8.734;2023-03-04T00:00:45;21.63;;;12.27;;
11447;SDS011;43755;49.736;8.734;2023-03-04T00:02:46;21.63;;;13.10;;
11447;SDS011;43755;49.736;8.734;2023-03-04T00:04:48;20.27;;;12.13;;
11447;SDS011;43755;49.736;8.734;2023-03-04T00:06:50;20.38;;;12.10;;
11447;SDS011;43755;49.736;8.734;2023-03-04T00:08:51;18.05;;;11.82;;
11447;SDS011;43755;49.736;8.734;2023-03-04T00:10:53;23.83;;;13.32;;
11447;SDS011;43755;49.736;8.734;2023-03-04T00:12:54;19.48;;;11.73;;
11447;SDS011;43755;49.736;8.734;2023-03-04T00:14:57;18.42;;;11.00;;
11447;SDS011;43755;49.736;8.734;2023-03-04T00:16:58;19.58;;;12.70;;
11447;SDS011;43755;49.736;8.734;2023-03-04T00:19:02;19.58;;;12.52;;
11447;SDS011;43755;49.736;8.734;2023-03-04T00:21:04;23.10;;;12.73;;
11447;SDS011;43755;49.736;8.734;2023-03-04T00:23:06;19.45;;;12.18;;
11447;SDS011;43755;49.736;8.734;2023-03-04T00:25:08;22.45;;;13.10;;
11447;SDS011;43755;49.736;8.734;2023-03-04T00:27:09;21.52;;;12.50;;
11447;SDS011;43755;49.736;8.734;2023-03-04T00:29:11;22.02;;;13.13;;
11447;SDS011;43755;49.736;8.734;2023-03-04T00:31:13;22.65;;;13.02;;
11447;SDS011;43755;49.736;8.734;2023-03-04T00:33:15;25.40;;;14.18;;
11447;SDS011;43755;49.736;8.734;2023-03-04T00:35:16;22.17;;;13.35;;
11447;SDS011;43755;49.736;8.734;2023-03-04T00:37:18;25.25;;;14.15;;
11447;SDS011;43755;49.736;8.734;2023-03-04T00:39:19;23.52;;;13.57;;
11447;SDS011;43755;49.736;8.734;2023-03-04T00:41:21;24.92;;;13.65;;
11447;SDS011;43755;49.736;8.734;2023-03-04T00:43:22;24.33;;;13.27;;
11447;SDS011;43755;49.736;8.734;2023-03-04T00:45:23;22.50;;;13.75;;
11447;SDS011;43755;49.736;8.734;2023-03-04T00:47:26;26.17;;;13.88;;
11447;SDS011;43755;49.736;8.734;2023-03-04T00:49:28;22.73;;;13.70;;
11447;SDS011;43755;49.736;8.734;2023-03-04T00:51:29;22.35;;;13.40;;
11447;SDS011;43755;49.736;8.734;2023-03-04T00:53:30;23.17;;;14.73;;
11447;SDS011;43755;49.736;8.734;2023-03-04T00:55:32;25.58;;;14.38;;
11447;SDS011;43755;49.736;8.734;2023-03-04T00:57:33;25.65;;;14.82;;
11447;SDS011;43755;49.736;8.734;2023-03-04T00:59:35;25.33;;;14.35;;
11447;SDS011;43755;49.736;8.734;2023-03-04T01:01:36;26.23;;;13.98;;
11447;SDS011;43755;49.736;8.734;2023-03-04T01:03:39;25.10;;;13.95;;
11447;SDS011;43755;49.736;8.734;2023-03-04T01:05:41;24.35;;;14.50;;
11447;SDS011;43755;49.736;8.734;2023-03-04T01:07:42;25.73;;;14.63;;
11447;SDS011;43755;49.736;8.734;2023-03-04T01:09:44;26.48;;;14.95;;
11447;SDS011;43755;49.736;8.734;2023-03-04T01:11:45;26.25;;;15.23;;
11447;SDS011;43755;49.736;8.734;2023-03-04T01:13:50;29.00;;;15.40;;
11447;SDS011;43755;49.736;8.734;2023-03-04T01:15:51;27.17;;;14.98;;
11447;SDS011;43755;49.736;8.734;2023-03-04T01:17:53;26.48;;;16.13;;
11447;SDS011;43755;49.736;8.734;2023-03-04T01:19:56;27.90;;;14.98;;
11447;SDS011;43755;49.736;8.734;2023-03-04T01:21:57;26.77;;;15.18;;
11447;SDS011;43755;49.736;8.734;2023-03-04T01:23:59;25.58;;;14.77;;
11447;SDS011;43755;49.736;8.734;2023-03-04T01:26:00;29.27;;;14.95;;
11447;SDS011;43755;49.736;8.734;2023-03-04T01:28:02;23.15;;;14.07;;
11447;SDS011;43755;49.736;8.734;2023-03-04T01:30:04;25.05;;;14.93;;
11447;SDS011;43755;49.736;8.734;2023-03-04T01:32:06;25.00;;;14.70;;
11447;SDS011;43755;49.736;8.734;2023-03-04T01:34:07;23.33;;;14.85;;
11447;SDS011;43755;49.736;8.734;2023-03-04T01:36:11;26.30;;;14.48;;
11447;SDS011;43755;49.736;8.734;2023-03-04T01:38:12;27.58;;;15.43;;
11447;SDS011;43755;49.736;8.734;2023-03-04T01:40:14;26.38;;;14.98;;
11447;SDS011;43755;49.736;8.734;2023-03-04T01:42:16;23.27;;;13.80;;
11447;SDS011;43755;49.736;8.734;2023-03-04T01:44:19;26.23;;;14.95;;
11447;SDS011;43755;49.736;8.734;2023-03-04T01:46:21;26.25;;;15.05;;
11447;SDS011;43755;49.736;8.734;2023-03-04T01:48:24;25.10;;;15.02;;
11447;SDS011;43755;49.736;8.734;2023-03-04T01:50:27;27.38;;;15.73;;
11447;SDS011;43755;49.736;8.734;2023-03-04T01:52:33;27.05;;;15.55;;
11447;SDS011;43755;49.736;8.734;2023-03-04T01:54:35;27.60;;;16.20;;
11447;SDS011;43755;49.736;8.734;2023-03-04T01:56:36;25.45;;;14.90;;
11447;SDS011;43755;49.736;8.734;2023-03-04T01:58:39;28.60;;;15.65;;
11447;SDS011;43755;49.736;8.734;2023-03-04T02:00:40;26.75;;;15.93;;
11447;SDS011;43755;49.736;8.734;2023-03-04T02:02:42;29.20;;;16.00;;
11447;SDS011;43755;49.736;8.734;2023-03-04T02:04:43;26.60;;;14.90;;
11447;SDS011;43755;49.736;8.734;2023-03-04T02:06:45;28.50;;;15.73;;
11447;SDS011;43755;49.736;8.734;2023-03-04T02:08:49;25.70;;;15.48;;
11447;SDS011;43755;49.736;8.734;2023-03-04T02:10:50;26.80;;;16.50;;
11447;SDS011;43755;49.736;8.734;2023-03-04T02:12:52;25.17;;;15.57;;
11447;SDS011;43755;49.736;8.734;2023-03-04T02:14:54;28.45;;;15.82;;
11447;SDS011;43755;49.736;8.734;2023-03-04T02:16:56;32.95;;;16.58;;
11447;SDS011;43755;49.736;8.734;2023-03-04T02:18:57;29.10;;;16.65;;
11447;SDS011;43755;49.736;8.734;2023-03-04T02:21:01;33.15;;;17.52;;
11447;SDS011;43755;49.736;8.734;2023-03-04T02:23:10;28.33;;;16.45;;
11447;SDS011;43755;49.736;8.734;2023-03-04T02:25:20;37.40;;;17.52;;
11447;SDS011;43755;49.736;8.734;2023-03-04T02:27:25;30.58;;;17.88;;
11447;SDS011;43755;49.736;8.734;2023-03-04T02:29:26;32.20;;;17.48;;
11447;SDS011;43755;49.736;8.734;2023-03-04T02:31:29;34.75;;;18.90;;
11447;SDS011;43755;49.736;8.734;2023-03-04T02:33:32;34.08;;;17.35;;
11447;SDS011;43755;49.736;8.734;2023-03-04T02:35:34;33.85;;;17.55;;
11447;SDS011;43755;49.736;8.734;2023-03-04T02:37:35;34.65;;;18.80;;
11447;SDS011;43755;49.736;8.734;2023-03-04T02:39:38;40.00;;;19.90;;
11447;SDS011;43755;49.736;8.734;2023-03-04T02:41:41;36.53;;;19.40;;
11447;SDS011;43755;49.736;8.734;2023-03-04T02:43:44;34.88;;;19.27;;
11447;SDS011;43755;49.736;8.734;2023-03-04T02:45:46;36.78;;;19.52;;
11447;SDS011;43755;49.736;8.734;2023-03-04T02:47:48;37.90;;;20.20;;
11447;SDS011;43755;49.736;8.734;2023-03-04T02:49:49;38.60;;;21.05;;
11447;SDS011;43755;49.736;8.734;2023-03-04T02:51:51;37.47;;;19.08;;
11447;SDS011;43755;49.736;8.734;2023-03-04T02:53:58;37.63;;;19.92;;
11447;SDS011;43755;49.736;8.734;2023-03-04T02:55:59;37.95;;;20.23;;
11447;SDS011;43755;49.736;8.734;2023-03-04T02:58:01;38.28;;;20.58;;
11447;SDS011;43755;49.736;8.734;2023-03-04T03:00:04;38.00;;;19.75;;
11447;SDS011;43755;49.736;8.734;2023-03-04T03:02:07;40.20;;;20.38;;
11447;SDS011;43755;49.736;8.734;2023-03-04T03:04:09;32.05;;;18.38;;
11447;SDS011;43755;49.736;8.734;2023-03-04T03:06:10;38.25;;;20.20;;
11447;SDS011;43755;49.736;8.734;2023-03-04T03:08:12;35.17;;;19.60;;
11447;SDS011;43755;49.736;8.734;2023-03-04T03:10:13;36.03;;;19.33;;
11447;SDS011;43755;49.736;8.734;2023-03-04T03:12:14;34.40;;;19.38;;
11447;SDS011;43755;49.736;8.734;2023-03-04T03:14:16;35.75;;;18.70;;
11447;SDS011;43755;49.736;8.734;2023-03-04T03:16:19;35.88;;;20.33;;
11447;SDS011;43755;49.736;8.734;2023-03-04T03:18:20;35.15;;;19.65;;
11447;SDS011;43755;49.736;8.734;2023-03-04T03:20:21;37.63;;;19.95;;
11447;SDS011;43755;49.736;8.734;2023-03-04T03:22:23;38.15;;;20.40;;
11447;SDS011;43755;49.736;8.734;2023-03-04T03:24:24;37.80;;;19.98;;
11447;SDS011;43755;49.736;8.734;2023-03-04T03:26:26;36.58;;;20.08;;
11447;SDS011;43755;49.736;8.734;2023-03-04T03:28:27;36.38;;;19.75;;
11447;SDS011;43755;49.736;8.734;2023-03-04T03:30:29;40.58;;;20.92;;
11447;SDS011;43755;49.736;8.734;2023-03-04T03:32:31;39.00;;;21.02;;
11447;SDS011;43755;49.736;8.734;2023-03-04T03:34:33;34.90;;;20.38;;
11447;SDS011;43755;49.736;8.734;2023-03-04T03:36:34;37.92;;;19.80;;
11447;SDS011;43755;49.736;8.734;2023-03-04T03:38:36;37.88;;;19.20;;
11447;SDS011;43755;49.736;8.734;2023-03-04T03:40:37;34.70;;;19.63;;
11447;SDS011;43755;49.736;8.734;2023-03-04T03:42:39;39.63;;;20.73;;
11447;SDS011;43755;49.736;8.734;2023-03-04T03:44:40;32.95;;;19.20;;
11447;SDS011;43755;49.736;8.734;2023-03-04T03:46:42;34.72;;;20.67;;
11447;SDS011;43755;49.736;8.734;2023-03-04T03:48:44;35.20;;;20.90;;
11447;SDS011;43755;49.736;8.734;2023-03-04T03:50:46;38.58;;;20.05;;
11447;SDS011;43755;49.736;8.734;2023-03-04T03:52:47;32.05;;;19.02;;
11447;SDS011;43755;49.736;8.734;2023-03-04T03:54:49;31.27;;;19.02;;
11447;SDS011;43755;49.736;8.734;2023-03-04T03:56:50;41.17;;;20.65;;
11447;SDS011;43755;49.736;8.734;2023-03-04T03:58:51;33.80;;;19.58;;
11447;SDS011;43755;49.736;8.734;2023-03-04T04:00:53;34.78;;;20.33;;
11447;SDS011;43755;49.736;8.734;2023-03-04T04:02:54;31.92;;;18.83;;
11447;SDS011;43755;49.736;8.734;2023-03-04T04:04:59;34.72;;;21.20;;
11447;SDS011;43755;49.736;8.734;2023-03-04T04:07:00;31.70;;;19.48;;
11447;SDS011;43755;49.736;8.734;2023-03-04T04:09:02;38.00;;;19.75;;
11447;SDS011;43755;49.736;8.734;2023-03-04T04:11:04;30.58;;;19.63;;
11447;SDS011;43755;49.736;8.734;2023-03-04T04:13:05;34.90;;;19.48;;
11447;SDS011;43755;49.736;8.734;2023-03-04T04:15:08;31.65;;;19.25;;
11447;SDS011;43755;49.736;8.734;2023-03-04T04:17:11;36.67;;;20.55;;
11447;SDS011;43755;49.736;8.734;2023-03-04T04:19:15;35.08;;;19.52;;
11447;SDS011;43755;49.736;8.734;2023-03-04T04:21:19;34.08;;;20.00;;
11447;SDS011;43755;49.736;8.734;2023-03-04T04:23:21;35.75;;;19.17;;
11447;SDS011;43755;49.736;8.734;2023-03-04T04:25:23;33.08;;;19.30;;
11447;SDS011;43755;49.736;8.734;2023-03-04T04:27:24;34.90;;;19.52;;
11447;SDS011;43755;49.736;8.734;2023-03-04T04:29:26;39.28;;;20.77;;
11447;SDS011;43755;49.736;8.734;2023-03-04T04:31:27;35.08;;;20.83;;
11447;SDS011;43755;49.736;8.734;2023-03-04T04:33:28;35.25;;;20.33;;
11447;SDS011;43755;49.736;8.734;2023-03-04T04:35:30;36.47;;;20.55;;
11447;SDS011;43755;49.736;8.734;2023-03-04T04:37:34;32.50;;;19.40;;
11447;SDS011;43755;49.736;8.734;2023-03-04T04:39:35;38.42;;;20.42;;
11447;SDS011;43755;49.736;8.734;2023-03-04T04:41:37;36.03;;;21.42;;
11447;SDS011;43755;49.736;8.734;2023-03-04T04:43:40;33.53;;;19.58;;
11447;SDS011;43755;49.736;8.734;2023-03-04T04:45:41;33.30;;;19.13;;
11447;SDS011;43755;49.736;8.734;2023-03-04T04:47:43;30.42;;;18.58;;
11447;SDS011;43755;49.736;8.734;2023-03-04T04:49:44;32.35;;;19.10;;
11447;SDS011;43755;49.736;8.734;2023-03-04T04:51:46;35.33;;;20.10;;
11447;SDS011;43755;49.736;8.734;2023-03-04T04:53:49;32.83;;;19.73;;
11447;SDS011;43755;49.736;8.734;2023-03-04T04:55:50;34.63;;;19.80;;
11447;SDS011;43755;49.736;8.734;2023-03-04T04:57:51;33.70;;;19.52;;
11447;SDS011;43755;49.736;8.734;2023-03-04T04:59:53;35.85;;;20.48;;
11447;SDS011;43755;49.736;8.734;2023-03-04T05:01:54;34.08;;;19.38;;
11447;SDS011;43755;49.736;8.734;2023-03-04T05:03:56;33.72;;;20.15;;
11447;SDS011;43755;49.736;8.734;2023-03-04T05:05:57;35.88;;;20.00;;
11447;SDS011;43755;49.736;8.734;2023-03-04T05:07:59;35.22;;;19.52;;
11447;SDS011;43755;49.736;8.734;2023-03-04T05:10:01;31.50;;;18.92;;
11447;SDS011;43755;49.736;8.734;2023-03-04T05:12:03;29.33;;;19.27;;
11447;SDS011;43755;49.736;8.734;2023-03-04T05:14:05;35.38;;;20.42;;
11447;SDS011;43755;49.736;8.734;2023-03-04T05:16:07;36.17;;;20.20;;
11447;SDS011;43755;49.736;8.734;2023-03-04T05:18:09;36.38;;;21.83;;
11447;SDS011;43755;49.736;8.734;2023-03-04T05:20:10;39.05;;;22.65;;
11447;SDS011;43755;49.736;8.734;2023-03-04T05:22:12;40.17;;;22.42;;
11447;SDS011;43755;49.736;8.734;2023-03-04T05:24:13;43.30;;;23.13;;
11447;SDS011;43755;49.736;8.734;2023-03-04T05:26:16;35.30;;;20.98;;
11447;SDS011;43755;49.736;8.734;2023-03-04T05:28:18;36.13;;;20.40;;
11447;SDS011;43755;49.736;8.734;2023-03-04T05:30:20;36.90;;;21.00;;
11447;SDS011;43755;49.736;8.734;2023-03-04T05:32:21;32.53;;;20.23;;
11447;SDS011;43755;49.736;8.734;2023-03-04T05:34:23;38.55;;;22.13;;
11447;SDS011;43755;49.736;8.734;2023-03-04T05:36:24;32.53;;;20.77;;
11447;SDS011;43755;49.736;8.734;2023-03-04T05:38:26;37.75;;;21.00;;
11447;SDS011;43755;49.736;8.734;2023-03-04T05:40:27;40.22;;;22.40;;
11447;SDS011;43755;49.736;8.734;2023-03-04T05:42:30;36.78;;;22.17;;
11447;SDS011;43755;49.736;8.734;2023-03-04T05:44:31;36.95;;;22.17;;
11447;SDS011;43755;49.736;8.734;2023-03-04T05:46:32;38.28;;;22.45;;
11447;SDS011;43755;49.736;8.734;2023-03-04T05:48:34;40.40;;;23.58;;
11447;SDS011;43755;49.736;8.734;2023-03-04T05:50:35;37.70;;;22.92;;
11447;SDS011;43755;49.736;8.734;2023-03-04T05:52:37;35.85;;;21.85;;
11447;SDS011;43755;49.736;8.734;2023-03-04T05:54:38;36.47;;;22.27;;
11447;SDS011;43755;49.736;8.734;2023-03-04T05:56:39;38.40;;;22.92;;
11447;SDS011;43755;49.736;8.734;2023-03-04T05:58:42;39.53;;;22.75;;
11447;SDS011;43755;49.736;8.734;2023-03-04T06:00:46;38.22;;;22.17;;
11447;SDS011;43755;49.736;8.734;2023-03-04T06:02:48;36.55;;;22.85;;
11447;SDS011;43755;49.736;8.734;2023-03-04T06:04:49;40.10;;;24.27;;
11447;SDS011;43755;49.736;8.734;2023-03-04T06:06:50;43.78;;;24.73;;
11447;SDS011;43755;49.736;8.734;2023-03-04T06:08:52;42.50;;;24.23;;
11447;SDS011;43755;49.736;8.734;2023-03-04T06:10:54;39.65;;;23.15;;
11447;SDS011;43755;49.736;8.734;2023-03-04T06:12:57;40.42;;;24.58;;
11447;SDS011;43755;49.736;8.734;2023-03-04T06:15:00;39.65;;;24.48;;
11447;SDS011;43755;49.736;8.734;2023-03-04T06:17:02;37.25;;;23.50;;
11447;SDS011;43755;49.736;8.734;2023-03-04T06:19:04;39.47;;;24.10;;
11447;SDS011;43755;49.736;8.734;2023-03-04T06:21:05;39.30;;;23.83;;
11447;SDS011;43755;49.736;8.734;2023-03-04T06:23:06;39.38;;;23.80;;
11447;SDS011;43755;49.736;8.734;2023-03-04T06:25:08;36.83;;;22.55;;
11447;SDS011;43755;49.736;8.734;2023-03-04T06:27:10;37.78;;;23.20;;
11447;SDS011;43755;49.736;8.734;2023-03-04T06:29:12;36.55;;;23.63;;
11447;SDS011;43755;49.736;8.734;2023-03-04T06:31:15;36.42;;;23.95;;
11447;SDS011;43755;49.736;8.734;2023-03-04T06:33:16;38.25;;;24.00;;
11447;SDS011;43755;49.736;8.734;2023-03-04T06:35:18;36.08;;;23.55;;
11447;SDS011;43755;49.736;8.734;2023-03-04T06:37:19;34.65;;;22.35;;
11447;SDS011;43755;49.736;8.734;2023-03-04T06:39:21;35.22;;;23.15;;
11447;SDS011;43755;49.736;8.734;2023-03-04T06:41:23;37.33;;;24.70;;
11447;SDS011;43755;49.736;8.734;2023-03-04T06:43:24;37.55;;;23.45;;
11447;SDS011;43755;49.736;8.734;2023-03-04T06:45:26;38.85;;;23.40;;
11447;SDS011;43755;49.736;8.734;2023-03-04T06:47:29;33.80;;;23.13;;
11447;SDS011;43755;49.736;8.734;2023-03-04T06:49:30;35.03;;;24.67;;
11447;SDS011;43755;49.736;8.734;2023-03-04T06:51:32;35.97;;;23.98;;
11447;SDS011;43755;49.736;8.734;2023-03-04T06:53:33;35.97;;;23.92;;
11447;SDS011;43755;49.736;8.734;2023-03-04T06:55:35;36.85;;;23.52;;
11447;SDS011;43755;49.736;8.734;2023-03-04T06:57:37;36.70;;;22.88;;
11447;SDS011;43755;49.736;8.734;2023-03-04T06:59:38;35.53;;;23.90;;
11447;SDS011;43755;49.736;8.734;2023-03-04T07:01:40;34.20;;;23.05;;
11447;SDS011;43755;49.736;8.734;2023-03-04T07:03:43;35.05;;;23.95;;
11447;SDS011;43755;49.736;8.734;2023-03-04T07:05:44;33.92;;;22.85;;
11447;SDS011;43755;49.736;8.734;2023-03-04T07:07:46;31.95;;;22.63;;
11447;SDS011;43755;49.736;8.734;2023-03-04T07:09:48;33.22;;;22.60;;
11447;SDS011;43755;49.736;8.734;2023-03-04T07:11:49;35.05;;;22.92;;
11447;SDS011;43755;49.736;8.734;2023-03-04T07:13:51;32.25;;;23.67;;
11447;SDS011;43755;49.736;8.734;2023-03-04T07:15:52;30.92;;;21.67;;
11447;SDS011;43755;49.736;8.734;2023-03-04T07:17:54;31.42;;;22.15;;
11447;SDS011;43755;49.736;8.734;2023-03-04T07:19:56;32.28;;;23.73;;
11447;SDS011;43755;49.736;8.734;2023-03-04T07:21:58;34.63;;;24.45;;
11447;SDS011;43755;49.736;8.734;2023-03-04T07:23:59;32.15;;;22.95;;
11447;SDS011;43755;49.736;8.734;2023-03-04T07:26:01;30.20;;;22.50;;
11447;SDS011;43755;49.736;8.734;2023-03-04T07:28:02;32.75;;;23.15;;
11447;SDS011;43755;49.736;8.734;2023-03-04T07:30:04;33.25;;;22.95;;
11447;SDS011;43755;49.736;8.734;2023-03-04T07:32:06;33.75;;;23.05;;
11447;SDS011;43755;49.736;8.734;2023-03-04T07:34:09;31.35;;;22.85;;
11447;SDS011;43755;49.736;8.734;2023-03-04T07:36:14;33.63;;;22.85;;
11447;SDS011;43755;49.736;8.734;2023-03-04T07:38:15;31.23;;;22.08;;
11447;SDS011;43755;49.736;8.734;2023-03-04T07:40:17;28.35;;;21.40;;
11447;SDS011;43755;49.736;8.734;2023-03-04T07:42:18;31.15;;;22.20;;
11447;SDS011;43755;49.736;8.734;2023-03-04T07:44:20;29.02;;;21.35;;
11447;SDS011;43755;49.736;8.734;2023-03-04T07:46:21;32.58;;;22.48;;
11447;SDS011;43755;49.736;8.734;2023-03-04T07:48:23;31.40;;;21.83;;
11447;SDS011;43755;49.736;8.734;2023-03-04T07:50:24;29.95;;;20.58;;
11447;SDS011;43755;49.736;8.734;2023-03-04T07:52:27;31.15;;;21.20;;
11447;SDS011;43755;49.736;8.734;2023-03-04T07:54:29;29.27;;;21.58;;
11447;SDS011;43755;49.736;8.734;2023-03-04T07:56:31;28.48;;;20.40;;
11447;SDS011;43755;49.736;8.734;2023-03-04T07:58:33;32.15;;;22.20;;
11447;SDS011;43755;49.736;8.734;2023-03-04T08:00:35;28.08;;;21.08;;
11447;SDS011;43755;49.736;8.734;2023-03-04T08:02:36;29.77;;;21.48;;
11447;SDS011;43755;49.736;8.734;2023-03-04T08:04:38;26.92;;;20.38;;
11447;SDS011;43755;49.736;8.734;2023-03-04T08:06:39;32.50;;;21.08;;
11447;SDS011;43755;49.736;8.734;2023-03-04T08:08:42;27.50;;;20.33;;
11447;SDS011;43755;49.736;8.734;2023-03-04T08:10:44;28.92;;;20.67;;
11447;SDS011;43755;49.736;8.734;2023-03-04T08:12:45;29.20;;;20.52;;
11447;SDS011;43755;49.736;8.734;2023-03-04T08:14:47;24.08;;;19.35;;
11447;SDS011;43755;49.736;8.734;2023-03-04T08:16:48;25.92;;;19.75;;
11447;SDS011;43755;49.736;8.734;2023-03-04T08:18:50;26.00;;;19.95;;
11447;SDS011;43755;49.736;8.734;2023-03-04T08:20:53;25.25;;;19.45;;
11447;SDS011;43755;49.736;8.734;2023-03-04T08:22:54;25.50;;;18.45;;
11447;SDS011;43755;49.736;8.734;2023-03-04T08:24:57;26.65;;;19.27;;
11447;SDS011;43755;49.736;8.734;2023-03-04T08:26:58;29.27;;;19.35;;
11447;SDS011;43755;49.736;8.734;2023-03-04T08:29:00;24.08;;;19.35;;
11447;SDS011;43755;49.736;8.734;2023-03-04T08:31:04;27.00;;;19.08;;
11447;SDS011;43755;49.736;8.734;2023-03-04T08:33:06;26.88;;;18.63;;
11447;SDS011;43755;49.736;8.734;2023-03-04T08:35:08;24.65;;;18.88;;
11447;SDS011;43755;49.736;8.734;2023-03-04T08:37:09;25.58;;;19.02;;
11447;SDS011;43755;49.736;8.734;2023-03-04T08:39:11;27.83;;;19.27;;
11447;SDS011;43755;49.736;8.734;2023-03-04T08:41:15;21.10;;;17.75;;
11447;SDS011;43755;49.736;8.734;2023-03-04T08:43:17;24.83;;;18.73;;
11447;SDS011;43755;49.736;8.734;2023-03-04T08:45:18;24.10;;;18.10;;
11447;SDS011;43755;49.736;8.734;2023-03-04T08:47:20;24.33;;;17.40;;
11447;SDS011;43755;49.736;8.734;2023-03-04T08:49:21;23.30;;;17.88;;
11447;SDS011;43755;49.736;8.734;2023-03-04T08:51:22;22.15;;;17.58;;
11447;SDS011;43755;49.736;8.734;2023-03-04T08:53:24;24.70;;;17.83;;
11447;SDS011;43755;49.736;8.734;2023-03-04T08:55:25;25.38;;;17.58;;
11447;SDS011;43755;49.736;8.734;2023-03-04T08:57:28;25.58;;;17.55;;
11447;SDS011;43755;49.736;8.734;2023-03-04T08:59:30;22.17;;;16.73;;
11447;SDS011;43755;49.736;8.734;2023-03-04T09:01:31;22.95;;;17.02;;
11447;SDS011;43755;49.736;8.734;2023-03-04T09:03:32;20.17;;;16.40;;
11447;SDS011;43755;49.736;8.734;2023-03-04T09:05:34;22.95;;;16.90;;
11447;SDS011;43755;49.736;8.734;2023-03-04T09:07:35;22.63;;;17.13;;
11447;SDS011;43755;49.736;8.734;2023-03-04T09:09:37;20.02;;;15.85;;
11447;SDS011;43755;49.736;8.734;2023-03-04T09:11:38;20.17;;;15.57;;
11447;SDS011;43755;49.736;8.734;2023-03-04T09:13:41;21.48;;;15.73;;
11447;SDS011;43755;49.736;8.734;2023-03-04T09:15:43;19.25;;;15.82;;
11447;SDS011;43755;49.736;8.734;2023-03-04T09:17:45;21.20;;;16.00;;
11447;SDS011;43755;49.736;8.734;2023-03-04T09:19:46;22.52;;;15.90;;
11447;SDS011;43755;49.736;8.734;2023-03-04T09:21:47;21.10;;;15.30;;
11447;SDS011;43755;49.736;8.734;2023-03-04T09:23:49;23.25;;;15.63;;
11447;SDS011;43755;49.736;8.734;2023-03-04T09:25:51;20.00;;;16.30;;
11447;SDS011;43755;49.736;8.734;2023-03-04T09:27:52;21.25;;;15.65;;
11447;SDS011;43755;49.736;8.734;2023-03-04T09:29:55;22.30;;;15.82;;
11447;SDS011;43755;49.736;8.734;2023-03-04T09:31:56;22.17;;;15.80;;
11447;SDS011;43755;49.736;8.734;2023-03-04T09:33:58;20.48;;;15.35;;
11447;SDS011;43755;49.736;8.734;2023-03-04T09:36:00;19.27;;;15.10;;
11447;SDS011;43755;49.736;8.734;2023-03-04T09:38:01;21.42;;;14.30;;
11447;SDS011;43755;49.736;8.734;2023-03-04T09:40:04;21.70;;;15.38;;
11447;SDS011;43755;49.736;8.734;2023-03-04T09:42:07;22.70;;;15.65;;
11447;SDS011;43755;49.736;8.734;2023-03-04T09:44:14;22.48;;;16.05;;
11447;SDS011;43755;49.736;8.734;2023-03-04T09:46:25;24.67;;;15.45;;
11447;SDS011;43755;49.736;8.734;2023-03-04T09:48:34;24.92;;;15.50;;
11447;SDS011;43755;49.736;8.734;2023-03-04T09:50:41;22.95;;;14.50;;
11447;SDS011;43755;49.736;8.734;2023-03-04T09:53:05;28.50;;;15.52;;
11447;SDS011;43755;49.736;8.734;2023-03-04T09:55:15;22.27;;;15.00;;
11447;SDS011;43755;49.736;8.734;2023-03-04T09:57:22;22.15;;;14.32;;
11447;SDS011;43755;49.736;8.734;2023-03-04T09:59:31;18.38;;;14.10;;
11447;SDS011;43755;49.736;8.734;2023-03-04T10:01:41;19.13;;;14.00;;
11447;SDS011;43755;49.736;8.734;2023-03-04T10:03:48;21.65;;;15.05;;
11447;SDS011;43755;49.736;8.734;2023-03-04T10:05:54;22.50;;;15.05;;
11447;SDS011;43755;49.736;8.734;2023-03-04T10:07:59;19.88;;;13.27;;
11447;SDS011;43755;49.736;8.734;2023-03-04T10:10:09;24.25;;;14.68;;
11447;SDS011;43755;49.736;8.734;2023-03-04T10:12:18;23.58;;;13.50;;
11447;SDS011;43755;49.736;8.734;2023-03-04T10:14:26;19.30;;;12.57;;
11447;SDS011;43755;49.736;8.734;2023-03-04T10:16:34;24.88;;;14.23;;
11447;SDS011;43755;49.736;8.734;2023-03-04T10:18:43;19.45;;;13.63;;
11447;SDS011;43755;49.736;8.734;2023-03-04T10:20:51;24.98;;;13.57;;
11447;SDS011;43755;49.736;8.734;2023-03-04T10:22:57;21.90;;;13.15;;
11447;SDS011;43755;49.736;8.734;2023-03-04T10:25:09;18.83;;;12.05;;
11447;SDS011;43755;49.736;8.734;2023-03-04T10:27:17;25.77;;;14.15;;
11447;SDS011;43755;49.736;8.734;2023-03-04T10:29:20;17.88;;;12.57;;
11447;SDS011;43755;49.736;8.734;2023-03-04T10:31:26;18.15;;;12.90;;
11447;SDS011;43755;49.736;8.734;2023-03-04T10:33:33;20.52;;;12.68;;
11447;SDS011;43755;49.736;8.734;2023-03-04T10:35:37;22.98;;;12.00;;
11447;SDS011;43755;49.736;8.734;2023-03-04T10:37:42;19.80;;;12.15;;
11447;SDS011;43755;49.736;8.734;2023-03-04T10:39:46;20.60;;;12.32;;
11447;SDS011;43755;49.736;8.734;2023-03-04T10:41:53;24.77;;;12.65;;
11447;SDS011;43755;49.736;8.734;2023-03-04T10:44:02;19.67;;;12.80;;
11447;SDS011;43755;49.736;8.734;2023-03-04T10:46:11;22.58;;;12.13;;
11447;SDS011;43755;49.736;8.734;2023-03-04T10:48:20;19.90;;;11.90;;
11447;SDS011;43755;49.736;8.734;2023-03-04T10:50:24;19.67;;;11.48;;
11447;SDS011;43755;49.736;8.734;2023-03-04T10:52:29;20.70;;;10.80;;
11447;SDS011;43755;49.736;8.734;2023-03-04T10:54:34;20.38;;;10.90;;
11447;SDS011;43755;49.736;8.734;2023-03-04T10:56:42;17.63;;;11.02;;
11447;SDS011;43755;49.736;8.734;2023-03-04T10:58:53;21.13;;;11.10;;
11447;SDS011;43755;49.736;8.734;2023-03-04T11:01:40;19.55;;;10.50;;
11447;SDS011;43755;49.736;8.734;2023-03-04T11:03:45;16.38;;;10.75;;
11447;SDS011;43755;49.736;8.734;2023-03-04T11:05:48;17.40;;;11.13;;
11447;SDS011;43755;49.736;8.734;2023-03-04T11:07:52;18.30;;;10.70;;
11447;SDS011;43755;49.736;8.734;2023-03-04T11:09:56;15.32;;;10.30;;
11447;SDS011;43755;49.736;8.734;2023-03-04T11:12:09;17.85;;;10.68;;
11447;SDS011;43755;49.736;8.734;2023-03-04T11:14:13;22.17;;;11.40;;
11447;SDS011;43755;49.736;8.734;2023-03-04T11:16:22;17.65;;;11.02;;
11447;SDS011;43755;49.736;8.734;2023-03-04T11:18:27;18.00;;;11.82;;
11447;SDS011;43755;49.736;8.734;2023-03-04T11:20:36;22.30;;;10.60;;
11447;SDS011;43755;49.736;8.734;2023-03-04T11:22:41;20.17;;;11.52;;
11447;SDS011;43755;49.736;8.734;2023-03-04T11:24:46;16.75;;;11.00;;
11447;SDS011;43755;49.736;8.734;2023-03-04T11:26:54;15.70;;;10.05;;
11447;SDS011;43755;49.736;8.734;2023-03-04T11:29:03;18.40;;;10.82;;
11447;SDS011;43755;49.736;8.734;2023-03-04T11:31:12;23.60;;;11.50;;
11447;SDS011;43755;49.736;8.734;2023-03-04T11:33:20;19.00;;;11.00;;
11447;SDS011;43755;49.736;8.734;2023-03-04T11:35:27;19.80;;;11.10;;
11447;SDS011;43755;49.736;8.734;2023-03-04T11:37:34;20.92;;;11.23;;
11447;SDS011;43755;49.736;8.734;2023-03-04T11:39:40;20.63;;;11.20;;
11447;SDS011;43755;49.736;8.734;2023-03-04T11:41:49;20.80;;;12.55;;
11447;SDS011;43755;49.736;8.734;2023-03-04T11:43:55;21.58;;;11.85;;
11447;SDS011;43755;49.736;8.734;2023-03-04T11:46:03;23.10;;;12.48;;
11447;SDS011;43755;49.736;8.734;2023-03-04T11:48:17;28.02;;;12.75;;
11447;SDS011;43755;49.736;8.734;2023-03-04T11:50:34;18.70;;;11.98;;
11447;SDS011;43755;49.736;8.734;2023-03-04T11:52:49;19.02;;;11.95;;
11447;SDS011;43755;49.736;8.734;2023-03-04T11:55:04;20.45;;;12.43;;
11447;SDS011;43755;49.736;8.734;2023-03-04T11:57:20;20.13;;;11.88;;
11447;SDS011;43755;49.736;8.734;2023-03-04T12:02:10;22.48;;;11.65;;